createdAt,value
2017-12-22T00:00:10.683Z,0.00
2017-12-22T00:01:10.684Z,0.00
2017-12-22T00:02:10.682Z,0.00
2017-12-22T00:03:10.673Z,0.00
2017-12-22T00:04:10.678Z,0.00
2017-12-22T00:05:10.667Z,0.00
2017-12-22T00:06:10.667Z,0.00
2017-12-22T00:07:10.668Z,0.00
2017-12-22T00:08:10.652Z,0.00
2017-12-22T00:09:10.651Z,0.00
2017-12-22T00:10:10.645Z,0.00
2017-12-22T00:11:10.641Z,0.00
2017-12-22T00:12:10.636Z,0.00
2017-12-22T00:13:10.636Z,0.00
2017-12-22T00:14:10.628Z,0.00
2017-12-22T00:15:10.651Z,0.00
2017-12-22T00:16:10.618Z,0.00
2017-12-22T00:17:10.617Z,0.00
2017-12-22T00:18:10.614Z,0.00
2017-12-22T00:19:10.673Z,0.00
2017-12-22T00:20:10.607Z,0.00
2017-12-22T00:21:10.602Z,0.00
2017-12-22T00:22:10.599Z,0.00
2017-12-22T00:23:10.593Z,0.00
2017-12-22T00:24:10.781Z,0.00
2017-12-22T00:25:10.584Z,0.00
2017-12-22T00:26:10.581Z,0.00
2017-12-22T00:27:10.579Z,0.00
2017-12-22T00:28:10.574Z,0.00
2017-12-22T00:29:10.571Z,0.00
2017-12-22T00:30:10.596Z,0.00
2017-12-22T00:31:10.562Z,0.00
2017-12-22T00:32:10.559Z,0.00
2017-12-22T00:33:10.554Z,0.00
2017-12-22T00:34:10.569Z,0.00
2017-12-22T00:35:10.544Z,0.00
2017-12-22T00:36:10.542Z,0.00
2017-12-22T00:37:10.543Z,0.00
2017-12-22T00:38:10.532Z,0.00
2017-12-22T00:39:10.544Z,0.00
2017-12-22T00:40:10.528Z,0.00
2017-12-22T00:41:10.527Z,0.00
2017-12-22T00:42:10.523Z,0.00
2017-12-22T00:43:10.513Z,0.00
2017-12-22T00:44:10.509Z,0.00
2017-12-22T00:45:10.528Z,0.00
2017-12-22T00:46:10.501Z,0.00
2017-12-22T00:47:10.498Z,0.00
2017-12-22T00:48:10.495Z,0.00
2017-12-22T00:49:10.490Z,0.00
2017-12-22T00:50:10.487Z,0.00
2017-12-22T00:51:10.487Z,0.00
2017-12-22T00:52:10.480Z,0.00
2017-12-22T00:53:10.475Z,0.00
2017-12-22T00:54:10.540Z,0.00
2017-12-22T00:55:10.467Z,0.00
2017-12-22T00:56:10.461Z,0.00
2017-12-22T00:57:10.464Z,0.00
2017-12-22T00:58:10.456Z,0.00
2017-12-22T00:59:10.449Z,0.00
2017-12-22T01:00:10.447Z,0.00
2017-12-22T01:01:10.463Z,0.00
2017-12-22T01:02:10.436Z,0.00
2017-12-22T01:03:10.433Z,0.00
2017-12-22T01:04:10.430Z,0.00
2017-12-22T01:05:10.425Z,0.00
2017-12-22T01:06:10.422Z,0.00
2017-12-22T01:07:10.426Z,0.00
2017-12-22T01:08:10.415Z,0.00
2017-12-22T01:09:10.410Z,0.00
2017-12-22T01:10:10.404Z,0.00
2017-12-22T01:11:10.411Z,0.00
2017-12-22T01:12:10.398Z,0.00
2017-12-22T01:13:10.404Z,0.00
2017-12-22T01:14:10.389Z,0.00
2017-12-22T01:15:10.386Z,0.00
2017-12-22T01:16:10.386Z,0.00
2017-12-22T01:17:10.378Z,0.00
2017-12-22T01:18:10.373Z,0.00
2017-12-22T01:19:10.369Z,0.00
2017-12-22T01:20:10.368Z,0.00
2017-12-22T01:21:10.362Z,0.00
2017-12-22T01:22:10.357Z,0.00
2017-12-22T01:23:10.356Z,0.00
2017-12-22T01:24:10.351Z,0.00
2017-12-22T01:25:10.345Z,0.00
2017-12-22T01:26:10.341Z,0.00
2017-12-22T01:27:10.335Z,0.00
2017-12-22T01:28:10.332Z,0.00
2017-12-22T01:29:10.329Z,0.00
2017-12-22T01:30:10.326Z,0.00
2017-12-22T01:31:10.322Z,0.00
2017-12-22T01:32:10.319Z,0.00
2017-12-22T01:33:10.314Z,0.00
2017-12-22T01:34:10.310Z,0.00
2017-12-22T01:35:10.307Z,0.00
2017-12-22T01:36:10.300Z,0.00
2017-12-22T01:37:10.422Z,0.00
2017-12-22T01:38:10.292Z,0.00
2017-12-22T01:39:10.309Z,0.00
2017-12-22T01:40:10.284Z,0.00
2017-12-22T01:41:10.278Z,0.00
2017-12-22T01:42:10.275Z,0.00
2017-12-22T01:43:10.271Z,0.00
2017-12-22T01:44:10.268Z,0.00
2017-12-22T01:45:10.263Z,0.00
2017-12-22T01:46:10.259Z,0.00
2017-12-22T01:47:10.256Z,0.00
2017-12-22T01:48:10.253Z,0.00
2017-12-22T01:49:10.246Z,0.00
2017-12-22T01:50:10.241Z,0.00
2017-12-22T01:51:10.241Z,0.00
2017-12-22T01:52:10.233Z,0.00
2017-12-22T01:53:10.232Z,0.00
2017-12-22T01:54:10.223Z,0.00
2017-12-22T01:55:10.226Z,0.00
2017-12-22T01:56:10.217Z,0.00
2017-12-22T01:57:10.215Z,0.00
2017-12-22T01:58:10.210Z,0.00
2017-12-22T01:59:10.205Z,0.00
2017-12-22T02:00:10.201Z,0.00
2017-12-22T02:01:10.195Z,0.00
2017-12-22T02:02:10.190Z,0.00
2017-12-22T02:03:10.188Z,0.00
2017-12-22T02:04:10.185Z,0.00
2017-12-22T02:05:10.180Z,0.00
2017-12-22T02:06:10.174Z,0.00
2017-12-22T02:07:10.170Z,0.00
2017-12-22T02:08:10.169Z,0.00
2017-12-22T02:09:10.164Z,0.00
2017-12-22T02:10:10.162Z,0.00
2017-12-22T02:11:10.220Z,0.00
2017-12-22T02:12:10.153Z,0.00
2017-12-22T02:13:10.149Z,0.00
2017-12-22T02:14:10.141Z,0.00
2017-12-22T02:15:10.139Z,0.00
2017-12-22T02:16:10.136Z,0.00
2017-12-22T02:17:10.129Z,0.00
2017-12-22T02:18:10.126Z,0.00
2017-12-22T02:19:10.123Z,0.00
2017-12-22T02:20:10.119Z,0.00
2017-12-22T02:21:10.112Z,0.00
2017-12-22T02:22:10.173Z,0.00
2017-12-22T02:23:10.169Z,0.00
2017-12-22T02:24:11.131Z,0.00
2017-12-22T02:25:10.439Z,0.00
2017-12-22T02:26:10.261Z,0.00
2017-12-22T02:27:10.088Z,0.00
2017-12-22T02:28:10.085Z,0.00
2017-12-22T02:29:10.081Z,0.00
2017-12-22T02:30:10.074Z,0.00
2017-12-22T02:31:10.071Z,0.00
2017-12-22T02:32:10.066Z,0.00
2017-12-22T02:33:10.065Z,0.00
2017-12-22T02:34:10.060Z,0.00
2017-12-22T02:35:10.059Z,0.00
2017-12-22T02:36:10.091Z,0.00
2017-12-22T02:37:10.043Z,0.00
2017-12-22T02:38:10.038Z,0.00
2017-12-22T02:39:10.043Z,0.00
2017-12-22T02:40:10.032Z,0.00
2017-12-22T02:41:10.038Z,0.00
2017-12-22T02:42:10.024Z,0.00
2017-12-22T02:43:10.474Z,0.00
2017-12-22T02:44:10.013Z,0.00
2017-12-22T02:45:10.055Z,0.00
2017-12-22T02:46:10.006Z,0.00
2017-12-22T02:47:10.004Z,0.00
2017-12-22T02:48:09.996Z,0.00
2017-12-22T02:49:09.990Z,0.00
2017-12-22T02:50:10.012Z,0.00
2017-12-22T02:51:09.983Z,0.00
2017-12-22T02:52:09.981Z,0.00
2017-12-22T02:53:09.973Z,0.00
2017-12-22T02:54:09.972Z,0.00
2017-12-22T02:55:09.964Z,0.00
2017-12-22T02:56:09.964Z,0.00
2017-12-22T02:57:09.955Z,0.00
2017-12-22T02:58:09.948Z,0.00
2017-12-22T02:59:09.946Z,0.00
2017-12-22T03:00:09.942Z,0.00
2017-12-22T03:01:09.935Z,0.00
2017-12-22T03:02:09.936Z,0.00
2017-12-22T03:03:09.926Z,0.00
2017-12-22T03:04:09.938Z,0.00
2017-12-22T03:05:09.921Z,0.00
2017-12-22T03:06:09.911Z,0.00
2017-12-22T03:07:09.905Z,0.00
2017-12-22T03:08:09.910Z,0.00
2017-12-22T03:09:09.896Z,0.00
2017-12-22T03:10:09.891Z,0.00
2017-12-22T03:11:09.887Z,0.00
2017-12-22T03:12:09.882Z,0.00
2017-12-22T03:13:09.878Z,0.00
2017-12-22T03:14:09.872Z,0.00
2017-12-22T03:15:09.869Z,0.00
2017-12-22T03:16:09.863Z,0.00
2017-12-22T03:17:09.859Z,0.00
2017-12-22T03:18:09.852Z,0.00
2017-12-22T03:19:09.848Z,0.00
2017-12-22T03:20:09.845Z,0.00
2017-12-22T03:21:09.842Z,0.00
2017-12-22T03:22:09.833Z,0.00
2017-12-22T03:23:09.830Z,0.00
2017-12-22T03:24:09.823Z,0.00
2017-12-22T03:25:09.820Z,0.00
2017-12-22T03:26:10.342Z,0.00
2017-12-22T03:27:11.514Z,0.00
2017-12-22T03:28:09.813Z,0.00
2017-12-22T03:29:09.800Z,0.00
2017-12-22T03:30:09.800Z,0.00
2017-12-22T03:31:09.791Z,0.00
2017-12-22T03:32:09.785Z,0.00
2017-12-22T03:33:09.781Z,0.00
2017-12-22T03:34:09.777Z,0.00
2017-12-22T03:35:09.770Z,0.00
2017-12-22T03:36:09.764Z,0.00
2017-12-22T03:37:09.760Z,0.00
2017-12-22T03:38:09.755Z,0.00
2017-12-22T03:39:09.756Z,0.00
2017-12-22T03:40:09.745Z,0.00
2017-12-22T03:41:09.741Z,0.00
2017-12-22T03:42:09.735Z,0.00
2017-12-22T03:43:09.732Z,0.00
2017-12-22T03:44:09.725Z,0.00
2017-12-22T03:45:09.721Z,0.00
2017-12-22T03:46:09.713Z,0.00
2017-12-22T03:47:09.710Z,0.00
2017-12-22T03:48:09.704Z,0.00
2017-12-22T03:49:09.705Z,0.00
2017-12-22T03:50:09.693Z,0.00
2017-12-22T03:51:09.694Z,0.00
2017-12-22T03:52:09.686Z,0.00
2017-12-22T03:53:09.678Z,0.00
2017-12-22T03:54:09.674Z,0.00
2017-12-22T03:55:09.670Z,0.00
2017-12-22T03:56:09.665Z,0.00
2017-12-22T03:57:09.661Z,0.00
2017-12-22T03:58:09.653Z,0.00
2017-12-22T03:59:09.648Z,0.00
2017-12-22T04:00:09.645Z,0.00
2017-12-22T04:01:09.643Z,0.00
2017-12-22T04:02:09.632Z,0.00
2017-12-22T04:03:09.626Z,0.00
2017-12-22T04:04:09.622Z,0.00
2017-12-22T04:05:09.617Z,0.00
2017-12-22T04:06:09.614Z,0.00
2017-12-22T04:07:09.606Z,0.00
2017-12-22T04:08:09.603Z,0.00
2017-12-22T04:09:09.596Z,0.00
2017-12-22T04:10:09.589Z,0.00
2017-12-22T04:11:09.584Z,0.00
2017-12-22T04:12:09.580Z,0.00
2017-12-22T04:13:09.574Z,0.00
2017-12-22T04:14:09.567Z,0.00
2017-12-22T04:15:09.563Z,0.00
2017-12-22T04:16:09.562Z,0.00
2017-12-22T04:17:09.551Z,0.00
2017-12-22T04:18:37.089Z,0.00
2017-12-22T04:19:09.543Z,0.00
2017-12-22T04:20:09.541Z,0.00
2017-12-22T04:21:09.533Z,0.00
2017-12-22T04:22:09.779Z,0.00
2017-12-22T04:23:11.013Z,0.00
2017-12-22T04:24:10.543Z,0.00
2017-12-22T04:25:11.103Z,0.00
2017-12-22T04:26:10.514Z,0.00
2017-12-22T04:27:10.552Z,0.00
2017-12-22T04:28:09.559Z,0.00
2017-12-22T04:29:09.510Z,0.00
2017-12-22T04:30:10.085Z,0.00
2017-12-22T04:31:09.571Z,0.00
2017-12-22T04:32:09.528Z,0.00
2017-12-22T04:33:09.635Z,0.00
2017-12-22T04:34:09.627Z,0.00
2017-12-22T04:35:09.649Z,0.00
2017-12-22T04:36:09.549Z,0.00
2017-12-22T04:37:10.074Z,0.00
2017-12-22T04:38:10.102Z,0.00
2017-12-22T04:39:10.017Z,0.00
2017-12-22T04:40:09.432Z,0.00
2017-12-22T04:41:09.426Z,0.00
2017-12-22T04:42:09.420Z,0.00
2017-12-22T04:43:09.420Z,0.00
2017-12-22T04:44:10.020Z,0.00
2017-12-22T04:45:09.403Z,0.00
2017-12-22T04:46:09.403Z,0.00
2017-12-22T04:47:09.395Z,0.00
2017-12-22T04:48:09.389Z,0.00
2017-12-22T04:49:09.384Z,0.00
2017-12-22T04:50:09.380Z,0.00
2017-12-22T04:51:09.374Z,0.00
2017-12-22T04:52:09.369Z,0.00
2017-12-22T04:53:09.366Z,0.00
2017-12-22T04:54:09.359Z,0.00
2017-12-22T04:55:09.355Z,0.00
2017-12-22T04:56:09.349Z,0.00
2017-12-22T04:57:09.344Z,0.00
2017-12-22T04:58:09.339Z,0.00
2017-12-22T04:59:09.335Z,0.00
2017-12-22T05:00:09.331Z,0.00
2017-12-22T05:01:09.328Z,0.00
2017-12-22T05:02:09.320Z,0.00
2017-12-22T05:03:09.314Z,0.00
2017-12-22T05:04:09.309Z,0.00
2017-12-22T05:05:09.306Z,0.00
2017-12-22T05:06:09.298Z,0.00
2017-12-22T05:07:09.293Z,0.00
2017-12-22T05:08:09.289Z,0.00
2017-12-22T05:09:09.286Z,0.00
2017-12-22T05:10:09.278Z,0.00
2017-12-22T05:11:09.272Z,0.00
2017-12-22T05:12:09.267Z,0.00
2017-12-22T05:13:09.264Z,0.00
2017-12-22T05:14:09.259Z,0.00
2017-12-22T05:15:09.253Z,0.00
2017-12-22T05:16:09.249Z,0.00
2017-12-22T05:17:09.244Z,0.00
2017-12-22T05:18:09.273Z,0.00
2017-12-22T05:19:09.236Z,0.00
2017-12-22T05:20:09.228Z,0.00
2017-12-22T05:21:09.222Z,0.00
2017-12-22T05:22:09.218Z,0.00
2017-12-22T05:23:09.214Z,0.00
2017-12-22T05:24:09.209Z,0.00
2017-12-22T05:25:09.202Z,0.00
2017-12-22T05:26:09.199Z,0.00
2017-12-22T05:27:09.194Z,0.00
2017-12-22T05:28:09.198Z,0.00
2017-12-22T05:29:09.186Z,0.00
2017-12-22T05:30:09.178Z,0.00
2017-12-22T05:31:09.173Z,0.00
2017-12-22T05:32:09.178Z,0.00
2017-12-22T05:33:09.163Z,0.00
2017-12-22T05:34:09.159Z,0.00
2017-12-22T05:35:09.153Z,0.00
2017-12-22T05:36:09.148Z,0.00
2017-12-22T05:37:09.325Z,0.00
2017-12-22T05:38:09.139Z,0.00
2017-12-22T05:39:09.135Z,0.00
2017-12-22T05:40:09.130Z,0.00
2017-12-22T05:41:09.127Z,0.00
2017-12-22T05:42:09.118Z,0.00
2017-12-22T05:43:09.112Z,0.00
2017-12-22T05:44:09.108Z,0.00
2017-12-22T05:45:09.107Z,0.00
2017-12-22T05:46:09.112Z,0.00
2017-12-22T05:47:09.092Z,0.00
2017-12-22T05:48:09.091Z,0.00
2017-12-22T05:49:09.084Z,0.00
2017-12-22T05:50:09.078Z,0.00
2017-12-22T05:51:09.074Z,0.00
2017-12-22T05:52:09.069Z,0.00
2017-12-22T05:53:09.066Z,0.00
2017-12-22T05:54:09.060Z,0.00
2017-12-22T05:55:09.056Z,0.00
2017-12-22T05:56:09.050Z,0.00
2017-12-22T05:57:09.054Z,0.00
2017-12-22T05:58:09.047Z,0.00
2017-12-22T05:59:09.037Z,0.00
2017-12-22T06:00:09.031Z,0.00
2017-12-22T06:01:09.026Z,0.00
2017-12-22T06:02:09.021Z,0.00
2017-12-22T06:03:09.018Z,0.00
2017-12-22T06:04:09.012Z,0.00
2017-12-22T06:05:09.005Z,0.00
2017-12-22T06:06:09.017Z,0.00
2017-12-22T06:07:09.001Z,0.00
2017-12-22T06:08:08.993Z,0.00
2017-12-22T06:09:08.989Z,0.00
2017-12-22T06:10:08.982Z,0.00
2017-12-22T06:11:08.979Z,0.00
2017-12-22T06:12:08.974Z,0.00
2017-12-22T06:13:08.968Z,0.00
2017-12-22T06:14:08.961Z,0.00
2017-12-22T06:15:08.965Z,0.00
2017-12-22T06:16:08.959Z,0.00
2017-12-22T06:17:08.952Z,0.00
2017-12-22T06:18:08.948Z,0.00
2017-12-22T06:19:08.941Z,0.00
2017-12-22T06:20:08.936Z,0.00
2017-12-22T06:21:08.929Z,0.00
2017-12-22T06:22:08.925Z,0.00
2017-12-22T06:23:08.920Z,0.00
2017-12-22T06:24:08.916Z,0.00
2017-12-22T06:25:08.913Z,0.00
2017-12-22T06:26:08.912Z,0.00
2017-12-22T06:27:08.904Z,0.00
2017-12-22T06:28:08.939Z,0.00
2017-12-22T06:29:08.893Z,0.00
2017-12-22T06:30:08.887Z,0.00
2017-12-22T06:31:08.882Z,0.00
2017-12-22T06:32:08.885Z,0.00
2017-12-22T06:33:08.874Z,0.00
2017-12-22T06:34:08.872Z,0.00
2017-12-22T06:35:08.865Z,0.00
2017-12-22T06:36:08.862Z,0.00
2017-12-22T06:37:08.858Z,0.00
2017-12-22T06:38:08.853Z,0.00
2017-12-22T06:39:08.851Z,0.00
2017-12-22T06:40:08.843Z,0.00
2017-12-22T06:41:08.838Z,0.00
2017-12-22T06:42:08.834Z,0.00
2017-12-22T06:43:08.829Z,0.00
2017-12-22T06:44:08.825Z,0.00
2017-12-22T06:45:08.820Z,0.00
2017-12-22T06:46:08.815Z,0.00
2017-12-22T06:47:08.813Z,0.00
2017-12-22T06:48:08.808Z,0.00
2017-12-22T06:49:08.803Z,0.00
2017-12-22T06:50:08.800Z,0.00
2017-12-22T06:51:08.794Z,0.00
2017-12-22T06:52:08.793Z,0.00
2017-12-22T06:53:08.783Z,0.00
2017-12-22T06:54:08.779Z,0.00
2017-12-22T06:55:08.777Z,0.00
2017-12-22T06:56:08.768Z,0.00
2017-12-22T06:57:08.765Z,0.00
2017-12-22T06:58:08.762Z,0.00
2017-12-22T06:59:08.757Z,0.00
2017-12-22T07:00:08.753Z,0.00
2017-12-22T07:01:08.750Z,0.00
2017-12-22T07:02:08.744Z,0.00
2017-12-22T07:03:08.739Z,0.00
2017-12-22T07:04:08.735Z,0.00
2017-12-22T07:05:08.731Z,0.00
2017-12-22T07:06:08.723Z,0.00
2017-12-22T07:07:08.731Z,0.00
2017-12-22T07:08:08.715Z,0.00
2017-12-22T07:09:08.711Z,0.00
2017-12-22T07:10:08.706Z,0.00
2017-12-22T07:11:08.705Z,0.00
2017-12-22T07:12:08.699Z,0.00
2017-12-22T07:13:08.695Z,0.00
2017-12-22T07:14:08.689Z,0.00
2017-12-22T07:15:08.684Z,0.00
2017-12-22T07:16:08.682Z,0.00
2017-12-22T07:17:08.676Z,0.00
2017-12-22T07:18:08.670Z,0.00
2017-12-22T07:19:08.666Z,0.00
2017-12-22T07:20:08.662Z,0.00
2017-12-22T07:21:08.658Z,0.00
2017-12-22T07:22:08.654Z,0.00
2017-12-22T07:23:08.650Z,0.00
2017-12-22T07:24:08.642Z,0.00
2017-12-22T07:25:08.640Z,0.00
2017-12-22T07:26:08.638Z,0.00
2017-12-22T07:27:08.628Z,0.00
2017-12-22T07:28:08.625Z,0.00
2017-12-22T07:29:08.620Z,0.00
2017-12-22T07:30:08.617Z,0.00
2017-12-22T07:31:08.612Z,0.00
2017-12-22T07:32:08.623Z,0.00
2017-12-22T07:33:08.603Z,0.00
2017-12-22T07:34:08.596Z,0.00
2017-12-22T07:35:08.593Z,0.00
2017-12-22T07:36:08.591Z,0.00
2017-12-22T07:37:08.584Z,0.00
2017-12-22T07:38:08.580Z,0.00
2017-12-22T07:39:08.574Z,5.63
2017-12-22T07:40:08.572Z,5.63
2017-12-22T07:41:08.566Z,5.63
2017-12-22T07:42:08.574Z,5.63
2017-12-22T07:43:08.567Z,5.63
2017-12-22T07:44:08.611Z,5.63
2017-12-22T07:45:08.560Z,5.63
2017-12-22T07:46:08.572Z,5.63
2017-12-22T07:47:08.538Z,5.63
2017-12-22T07:48:08.534Z,5.63
2017-12-22T07:49:08.531Z,5.63
2017-12-22T07:50:08.525Z,11.25
2017-12-22T07:51:08.519Z,11.25
2017-12-22T07:52:08.514Z,11.25
2017-12-22T07:53:08.515Z,11.25
2017-12-22T07:54:08.507Z,11.25
2017-12-22T07:55:08.567Z,11.25
2017-12-22T07:56:08.500Z,11.25
2017-12-22T07:57:08.494Z,11.25
2017-12-22T07:58:08.487Z,5.63
2017-12-22T07:59:08.486Z,5.63
2017-12-22T08:00:08.479Z,5.63
2017-12-22T08:01:08.476Z,11.25
2017-12-22T08:02:08.481Z,11.25
2017-12-22T08:03:08.473Z,11.25
2017-12-22T08:04:08.462Z,11.25
2017-12-22T08:05:08.859Z,11.25
2017-12-22T08:06:09.609Z,11.25
2017-12-22T08:07:09.111Z,16.88
2017-12-22T08:08:08.445Z,16.88
2017-12-22T08:09:08.439Z,16.88
2017-12-22T08:10:08.444Z,16.88
2017-12-22T08:11:08.435Z,16.88
2017-12-22T08:12:08.437Z,22.50
2017-12-22T08:13:08.428Z,22.50
2017-12-22T08:14:08.418Z,16.88
2017-12-22T08:15:08.412Z,22.50
2017-12-22T08:16:08.407Z,22.50
2017-12-22T08:17:08.427Z,22.50
2017-12-22T08:18:08.396Z,22.50
2017-12-22T08:19:08.393Z,22.50
2017-12-22T08:20:08.393Z,22.50
2017-12-22T08:21:08.386Z,22.50
2017-12-22T08:22:08.400Z,22.50
2017-12-22T08:23:08.375Z,22.50
2017-12-22T08:24:08.378Z,22.50
2017-12-22T08:25:08.364Z,22.50
2017-12-22T08:26:08.361Z,28.13
2017-12-22T08:27:08.355Z,28.13
2017-12-22T08:28:08.353Z,28.13
2017-12-22T08:29:08.351Z,28.13
2017-12-22T08:30:08.342Z,28.13
2017-12-22T08:31:08.338Z,28.13
2017-12-22T08:32:08.339Z,28.13
2017-12-22T08:33:08.341Z,28.13
2017-12-22T08:34:08.326Z,28.13
2017-12-22T08:35:08.322Z,28.13
2017-12-22T08:36:08.319Z,28.13
2017-12-22T08:37:08.312Z,28.13
2017-12-22T08:38:08.320Z,28.13
2017-12-22T08:39:08.302Z,33.75
2017-12-22T08:40:08.298Z,33.75
2017-12-22T08:41:08.298Z,33.75
2017-12-22T08:42:08.292Z,33.75
2017-12-22T08:43:08.284Z,33.75
2017-12-22T08:44:08.284Z,33.75
2017-12-22T08:45:08.277Z,33.75
2017-12-22T08:46:08.271Z,33.75
2017-12-22T08:47:08.267Z,33.75
2017-12-22T08:48:08.262Z,33.75
2017-12-22T08:49:08.257Z,33.75
2017-12-22T08:50:08.251Z,39.38
2017-12-22T08:51:08.249Z,39.38
2017-12-22T08:52:08.243Z,39.38
2017-12-22T08:53:08.238Z,39.38
2017-12-22T08:54:08.254Z,39.38
2017-12-22T08:55:08.263Z,39.38
2017-12-22T08:56:08.226Z,39.38
2017-12-22T08:57:08.222Z,39.38
2017-12-22T08:58:08.219Z,39.38
2017-12-22T08:59:08.214Z,39.38
2017-12-22T09:00:08.232Z,39.38
2017-12-22T09:01:08.244Z,39.38
2017-12-22T09:02:08.201Z,39.38
2017-12-22T09:03:08.196Z,39.38
2017-12-22T09:04:08.189Z,39.38
2017-12-22T09:05:08.192Z,39.38
2017-12-22T09:06:08.182Z,39.38
2017-12-22T09:07:08.178Z,39.38
2017-12-22T09:08:08.176Z,39.38
2017-12-22T09:09:08.173Z,39.38
2017-12-22T09:10:08.165Z,39.38
2017-12-22T09:11:08.162Z,39.38
2017-12-22T09:12:08.162Z,39.38
2017-12-22T09:13:08.154Z,45.00
2017-12-22T09:14:08.152Z,45.00
2017-12-22T09:15:08.146Z,39.38
2017-12-22T09:16:08.142Z,45.00
2017-12-22T09:17:08.138Z,39.38
2017-12-22T09:18:08.133Z,39.38
2017-12-22T09:19:08.160Z,39.38
2017-12-22T09:20:08.125Z,39.38
2017-12-22T09:21:08.137Z,39.38
2017-12-22T09:22:08.120Z,39.38
2017-12-22T09:23:08.111Z,39.38
2017-12-22T09:24:08.106Z,39.38
2017-12-22T09:25:08.108Z,39.38
2017-12-22T09:26:08.100Z,39.38
2017-12-22T09:27:08.098Z,39.38
2017-12-22T09:28:08.110Z,39.38
2017-12-22T09:29:08.089Z,39.38
2017-12-22T09:30:08.106Z,39.38
2017-12-22T09:31:08.083Z,39.38
2017-12-22T09:32:08.077Z,39.38
2017-12-22T09:33:08.072Z,39.38
2017-12-22T09:34:08.071Z,39.38
2017-12-22T09:35:08.062Z,39.38
2017-12-22T09:36:08.060Z,39.38
2017-12-22T09:37:08.055Z,45.00
2017-12-22T09:38:08.051Z,45.00
2017-12-22T09:39:08.052Z,45.00
2017-12-22T09:40:08.042Z,50.63
2017-12-22T09:41:08.042Z,50.63
2017-12-22T09:42:08.033Z,50.63
2017-12-22T09:43:08.029Z,50.63
2017-12-22T09:44:08.027Z,50.63
2017-12-22T09:45:08.023Z,56.25
2017-12-22T09:46:08.016Z,56.25
2017-12-22T09:47:08.015Z,56.25
2017-12-22T09:48:08.017Z,56.25
2017-12-22T09:49:08.011Z,56.25
2017-12-22T09:50:08.002Z,61.88
2017-12-22T09:51:07.995Z,61.88
2017-12-22T09:52:07.994Z,61.88
2017-12-22T09:53:07.991Z,67.50
2017-12-22T09:54:07.983Z,61.88
2017-12-22T09:55:07.983Z,61.88
2017-12-22T09:56:07.979Z,67.50
2017-12-22T09:57:07.988Z,67.50
2017-12-22T09:58:07.967Z,67.50
2017-12-22T09:59:07.968Z,61.88
2017-12-22T10:00:07.960Z,67.50
2017-12-22T10:01:07.957Z,67.50
2017-12-22T10:02:07.960Z,67.50
2017-12-22T10:03:07.952Z,67.50
2017-12-22T10:04:07.946Z,67.50
2017-12-22T10:05:07.942Z,61.88
2017-12-22T10:06:07.934Z,61.88
2017-12-22T10:07:07.951Z,61.88
2017-12-22T10:08:07.930Z,61.88
2017-12-22T10:09:07.924Z,61.88
2017-12-22T10:10:08.014Z,61.88
2017-12-22T10:11:07.917Z,61.88
2017-12-22T10:12:07.912Z,61.88
2017-12-22T10:13:07.912Z,61.88
2017-12-22T10:14:07.903Z,61.88
2017-12-22T10:15:07.901Z,67.50
2017-12-22T10:16:07.901Z,67.50
2017-12-22T10:17:07.895Z,67.50
2017-12-22T10:18:07.890Z,67.50
2017-12-22T10:19:07.886Z,67.50
2017-12-22T10:20:07.881Z,67.50
2017-12-22T10:21:07.899Z,67.50
2017-12-22T10:22:07.872Z,61.88
2017-12-22T10:23:07.879Z,61.88
2017-12-22T10:24:07.865Z,61.88
2017-12-22T10:25:07.863Z,61.88
2017-12-22T10:26:07.860Z,56.25
2017-12-22T10:27:07.858Z,56.25
2017-12-22T10:28:07.851Z,56.25
2017-12-22T10:29:07.850Z,56.25
2017-12-22T10:30:07.844Z,56.25
2017-12-22T10:31:07.842Z,56.25
2017-12-22T10:32:07.837Z,56.25
2017-12-22T10:33:07.833Z,50.63
2017-12-22T10:34:07.842Z,50.63
2017-12-22T10:35:07.827Z,50.63
2017-12-22T10:36:07.821Z,50.63
2017-12-22T10:37:07.820Z,50.63
2017-12-22T10:38:07.815Z,50.63
2017-12-22T10:39:07.816Z,56.25
2017-12-22T10:40:07.810Z,56.25
2017-12-22T10:41:07.807Z,56.25
2017-12-22T10:42:07.818Z,56.25
2017-12-22T10:43:07.800Z,56.25
2017-12-22T10:44:07.797Z,56.25
2017-12-22T10:45:07.791Z,61.88
2017-12-22T10:46:07.788Z,61.88
2017-12-22T10:47:07.785Z,67.50
2017-12-22T10:48:07.791Z,67.50
2017-12-22T10:49:07.780Z,67.50
2017-12-22T10:50:07.773Z,67.50
2017-12-22T10:51:07.773Z,67.50
2017-12-22T10:52:07.773Z,67.50
2017-12-22T10:53:07.766Z,67.50
2017-12-22T10:54:07.762Z,67.50
2017-12-22T10:55:07.762Z,78.75
2017-12-22T10:56:07.764Z,73.13
2017-12-22T10:57:07.750Z,78.75
2017-12-22T10:58:07.749Z,73.13
2017-12-22T10:59:07.748Z,73.13
2017-12-22T11:00:07.762Z,67.50
2017-12-22T11:01:07.739Z,67.50
2017-12-22T11:02:07.737Z,67.50
2017-12-22T11:03:07.740Z,67.50
2017-12-22T11:04:07.736Z,67.50
2017-12-22T11:05:07.728Z,67.50
2017-12-22T11:06:07.726Z,67.50
2017-12-22T11:07:07.723Z,73.13
2017-12-22T11:08:07.718Z,73.13
2017-12-22T11:09:07.715Z,73.13
2017-12-22T11:10:07.711Z,67.50
2017-12-22T11:11:07.708Z,67.50
2017-12-22T11:12:07.707Z,67.50
2017-12-22T11:13:07.706Z,67.50
2017-12-22T11:14:07.701Z,67.50
2017-12-22T11:15:07.733Z,67.50
2017-12-22T11:16:07.697Z,67.50
2017-12-22T11:17:07.701Z,61.88
2017-12-22T11:18:07.689Z,61.88
2017-12-22T11:19:07.689Z,56.25
2017-12-22T11:20:07.683Z,56.25
2017-12-22T11:21:07.682Z,56.25
2017-12-22T11:22:07.690Z,50.63
2017-12-22T11:23:07.676Z,50.63
2017-12-22T11:24:07.674Z,50.63
2017-12-22T11:25:07.671Z,56.25
2017-12-22T11:26:07.678Z,56.25
2017-12-22T11:27:07.663Z,56.25
2017-12-22T11:28:07.668Z,50.63
2017-12-22T11:29:07.660Z,50.63
2017-12-22T11:30:07.656Z,50.63
2017-12-22T11:31:07.658Z,50.63
2017-12-22T11:32:07.651Z,50.63
2017-12-22T11:33:07.650Z,56.25
2017-12-22T11:34:07.651Z,56.25
2017-12-22T11:35:07.642Z,61.88
2017-12-22T11:36:07.643Z,67.50
2017-12-22T11:37:07.640Z,73.13
2017-12-22T11:38:07.633Z,73.13
2017-12-22T11:39:07.641Z,78.75
2017-12-22T11:40:07.637Z,78.75
2017-12-22T11:41:07.626Z,73.13
2017-12-22T11:42:07.636Z,73.13
2017-12-22T11:43:07.626Z,67.50
2017-12-22T11:44:07.616Z,61.88
2017-12-22T11:45:07.639Z,56.25
2017-12-22T11:46:07.611Z,50.63
2017-12-22T11:47:07.609Z,45.00
2017-12-22T11:48:07.608Z,39.38
2017-12-22T11:49:07.604Z,33.75
2017-12-22T11:50:07.600Z,28.13
2017-12-22T11:51:07.600Z,28.13
2017-12-22T11:52:07.594Z,28.13
2017-12-22T11:53:07.593Z,28.13
2017-12-22T11:54:07.615Z,22.50
2017-12-22T11:55:07.587Z,22.50
2017-12-22T11:56:07.584Z,22.50
2017-12-22T11:57:07.582Z,22.50
2017-12-22T11:58:07.577Z,22.50
2017-12-22T11:59:07.575Z,22.50
2017-12-22T12:00:07.576Z,28.13
2017-12-22T12:01:07.578Z,28.13
2017-12-22T12:02:07.567Z,28.13
2017-12-22T12:03:07.567Z,28.13
2017-12-22T12:04:07.558Z,33.75
2017-12-22T12:05:07.603Z,33.75
2017-12-22T12:06:07.603Z,33.75
2017-12-22T12:07:07.549Z,33.75
2017-12-22T12:08:07.549Z,39.38
2017-12-22T12:09:07.543Z,39.38
2017-12-22T12:10:07.544Z,39.38
2017-12-22T12:11:07.546Z,39.38
2017-12-22T12:12:07.532Z,39.38
2017-12-22T12:13:07.532Z,39.38
2017-12-22T12:14:07.527Z,39.38
2017-12-22T12:15:07.523Z,39.38
2017-12-22T12:16:07.520Z,39.38
2017-12-22T12:17:07.518Z,39.38
2017-12-22T12:18:07.516Z,39.38
2017-12-22T12:19:07.601Z,39.38
2017-12-22T12:20:07.513Z,39.38
2017-12-22T12:21:07.506Z,39.38
2017-12-22T12:22:07.500Z,39.38
2017-12-22T12:23:07.501Z,39.38
2017-12-22T12:24:07.494Z,39.38
2017-12-22T12:25:07.495Z,39.38
2017-12-22T12:26:07.501Z,39.38
2017-12-22T12:27:07.484Z,39.38
2017-12-22T12:28:07.480Z,39.38
2017-12-22T12:29:07.477Z,39.38
2017-12-22T12:30:07.474Z,39.38
2017-12-22T12:31:07.472Z,39.38
2017-12-22T12:32:07.468Z,39.38
2017-12-22T12:33:07.462Z,39.38
2017-12-22T12:34:07.460Z,39.38
2017-12-22T12:35:07.455Z,39.38
2017-12-22T12:36:07.452Z,39.38
2017-12-22T12:37:07.448Z,45.00
2017-12-22T12:38:07.445Z,45.00
2017-12-22T12:39:07.443Z,45.00
2017-12-22T12:40:07.441Z,50.63
2017-12-22T12:41:07.434Z,50.63
2017-12-22T12:42:07.430Z,50.63
2017-12-22T12:43:07.429Z,50.63
2017-12-22T12:44:07.426Z,61.88
2017-12-22T12:45:07.421Z,67.50
2017-12-22T12:46:07.418Z,61.88
2017-12-22T12:47:07.414Z,56.25
2017-12-22T12:48:07.409Z,61.88
2017-12-22T12:49:07.434Z,61.88
2017-12-22T12:50:07.403Z,67.50
2017-12-22T12:51:07.400Z,67.50
2017-12-22T12:52:07.396Z,67.50
2017-12-22T12:53:07.394Z,61.88
2017-12-22T12:54:07.389Z,61.88
2017-12-22T12:55:07.383Z,56.25
2017-12-22T12:56:07.382Z,56.25
2017-12-22T12:57:07.378Z,56.25
2017-12-22T12:58:07.378Z,56.25
2017-12-22T12:59:07.372Z,56.25
2017-12-22T13:00:07.367Z,50.63
2017-12-22T13:01:07.367Z,50.63
2017-12-22T13:02:07.361Z,61.88
2017-12-22T13:03:07.381Z,61.88
2017-12-22T13:04:07.358Z,61.88
2017-12-22T13:05:07.352Z,56.25
2017-12-22T13:06:07.359Z,56.25
2017-12-22T13:07:07.346Z,56.25